Taillefer 3 — FGD5050 — position and weather

sailwx.info

Track history (hours):
 
Tides and Currents Weather Stations Pressure Air Temp Water Temp Dewpoint Dewpoint Depression Visibility Wind Speed Wind Dir Waves Ship Positions

Taillefer 3

Last reported at 2018-Apr-19 09:11 UTC. Time now 2018-Apr-24 05:05 UTC.
Position N 47°45' W 003°21'.

Length 40 m; draft 1.8 m.

Type: Cargo ship. MMSI: 227566810.

Date/timePositionNaut miles runAvg speedWind from/ knotsBaromVisibWave heightAir tempDewpointWater temp
2018-Apr-19 09:11N 47°45' W 003°21'0 0.8
2018-Apr-19 09:00N 47°45' W 003°21'4 7.9
2018-Apr-19 08:30N 47°41' W 003°22'5 9.9
2018-Apr-19 08:00N 47°36' W 003°20'5 9.8
2018-Apr-19 07:30N 47°31' W 003°17'510.0
2018-Apr-19 07:00N 47°27' W 003°13'510.3
2018-Apr-19 06:30N 47°23' W 003°10'2 0.4
2018-Apr-19 02:32N 47°21' W 003°10'0 0.0
2018-Apr-18 20:51N 47°21' W 003°10'0 0.0
2018-Apr-18 20:28N 47°21' W 003°10'0 0.0
2018-Apr-18 19:49N 47°21' W 003°10'0 0.0
2018-Apr-18 19:26N 47°21' W 003°10'0 0.0
2018-Apr-18 18:55N 47°21' W 003°10'0 0.0
2018-Apr-18 18:28N 47°21' W 003°10'0 0.0
2018-Apr-18 17:59N 47°21' W 003°10'0 0.1
2018-Apr-18 14:52N 47°21' W 003°09'1 1.4
2018-Apr-18 14:30N 47°21' W 003°09'0 0.0
2018-Apr-18 14:00N 47°21' W 003°09'0 0.0
2018-Apr-18 13:30N 47°21' W 003°09'0 0.0
2018-Apr-18 13:00N 47°21' W 003°09'0 0.0
2018-Apr-18 12:30N 47°21' W 003°09'0 0.1
2018-Apr-18 12:01N 47°21' W 003°09'3 6.1
2018-Apr-18 11:30N 47°24' W 003°11'4 7.7
2018-Apr-18 11:00N 47°27' W 003°14'4 7.5
2018-Apr-18 10:30N 47°31' W 003°16'4 8.2
2018-Apr-18 10:00N 47°35' W 003°19'4 7.8
2018-Apr-18 09:30N 47°38' W 003°21'4 8.2
2018-Apr-18 09:00N 47°42' W 003°22'3 6.7
2018-Apr-18 08:30N 47°45' W 003°19'0 0.0
2018-Apr-18 08:00N 47°45' W 003°19'1 2.3
2018-Apr-18 07:29N 47°44' W 003°21'4 8.3
2018-Apr-18 07:00N 47°40' W 003°22'5 9.8
2018-Apr-18 06:30N 47°36' W 003°20'5 9.9
2018-Apr-18 06:00N 47°31' W 003°17'5 9.0
2018-Apr-18 05:30N 47°27' W 003°13'5 9.9
2018-Apr-18 05:00N 47°23' W 003°10'2 0.1
2018-Apr-17 14:33N 47°21' W 003°09'0 2.2
2018-Apr-17 14:30N 47°21' W 003°09'0 0.1
2018-Apr-17 14:00N 47°21' W 003°09'0 0.0
2018-Apr-17 13:30N 47°21' W 003°09'0 0.0
2018-Apr-17 13:00N 47°21' W 003°09'0 0.0
2018-Apr-17 12:30N 47°21' W 003°09'1 2.7
2018-Apr-17 12:00N 47°22' W 003°08'4 7.9
2018-Apr-17 11:30N 47°25' W 003°05'4 8.0
2018-Apr-17 11:00N 47°28' W 003°00'4 8.8
2018-Apr-17 10:30N 47°31' W 002°56'611.0
2018-Apr-17 10:00N 47°36' W 002°52'4 8.0
2018-Apr-17 09:30N 47°38' W 002°46'1 1.8
2018-Apr-17 08:59N 47°38' W 002°46'0 0.0
2018-Apr-17 08:30N 47°38' W 002°46'0 0.0
2018-Apr-17 08:00N 47°38' W 002°46'0 0.0
2018-Apr-17 07:30N 47°38' W 002°46'0 0.0
2018-Apr-17 07:00N 47°38' W 002°46'0 0.0
2018-Apr-17 06:30N 47°38' W 002°46'0 0.0
2018-Apr-17 06:00N 47°38' W 002°46'0 0.0
2018-Apr-17 05:30N 47°38' W 002°46'0 0.0
2018-Apr-17 05:00N 47°38' W 002°46'0 0.0
2018-Apr-17 04:30N 47°38' W 002°46'0 0.0
2018-Apr-17 04:00N 47°38' W 002°46'0 0.0
2018-Apr-17 03:30N 47°38' W 002°46'0 0.0
2018-Apr-17 02:59N 47°38' W 002°46'0 0.0
2018-Apr-17 02:29N 47°38' W 002°46'0 0.0
2018-Apr-17 02:00N 47°38' W 002°46'0 0.0
2018-Apr-17 01:30N 47°38' W 002°46'0 0.0
2018-Apr-17 01:00N 47°38' W 002°46'0 0.0
2018-Apr-17 00:30N 47°38' W 002°46'0 0.0
2018-Apr-17 00:00N 47°38' W 002°46'0 0.0
2018-Apr-16 23:30N 47°38' W 002°46'0 0.0
2018-Apr-16 23:00N 47°38' W 002°46'0 0.0
2018-Apr-16 22:30N 47°38' W 002°46'0 0.0
2018-Apr-16 22:00N 47°38' W 002°46'0 0.0
2018-Apr-16 21:30N 47°38' W 002°46'0 0.0
2018-Apr-16 21:00N 47°38' W 002°46'0 0.0
2018-Apr-16 20:30N 47°38' W 002°46'0 0.0
2018-Apr-16 20:00N 47°38' W 002°46'0 0.0
2018-Apr-16 19:30N 47°38' W 002°46'0 0.0
2018-Apr-16 19:00N 47°38' W 002°46'0 0.0
2018-Apr-16 18:30N 47°38' W 002°46'1 1.4
2018-Apr-16 18:00N 47°38' W 002°46'4 8.6
2018-Apr-16 17:30N 47°36' W 002°52'510.8
2018-Apr-16 17:00N 47°31' W 002°56'510.4
2018-Apr-16 16:30N 47°27' W 003°01'510.3
2018-Apr-16 16:00N 47°23' W 003°06'3 2.2
2018-Apr-16 14:29N 47°21' W 003°09'4 8.7
2018-Apr-16 14:00N 47°25' W 003°11'510.3
2018-Apr-16 13:30N 47°29' W 003°14'5 9.9
2018-Apr-16 13:00N 47°34' W 003°18'5 9.5
2018-Apr-16 12:30N 47°38' W 003°22'3 6.9
2018-Apr-16 12:00N 47°39' W 003°27'0 0.0
2018-Apr-16 11:30N 47°39' W 003°27'0 0.0
2018-Apr-16 11:00N 47°39' W 003°27'0 0.0
2018-Apr-16 10:30N 47°39' W 003°27'0 0.0
2018-Apr-16 10:00N 47°39' W 003°27'0 0.0
2018-Apr-16 09:30N 47°39' W 003°27'0 0.0
2018-Apr-16 09:00N 47°39' W 003°27'0 0.0
2018-Apr-16 08:30N 47°39' W 003°27'0 0.0
2018-Apr-16 08:00N 47°39' W 003°27'0 0.0
2018-Apr-16 07:30N 47°39' W 003°27'0 0.0
2018-Apr-16 07:00N 47°39' W 003°27'0 0.0
2018-Apr-16 06:30N 47°39' W 003°27'0 0.0
2018-Apr-16 06:00N 47°39' W 003°27'2 3.2
2018-Apr-16 05:30N 47°40' W 003°25'5 9.6
2018-Apr-16 05:00N 47°44' W 003°21'  
2018-Apr-13 10:06N 47°45' W 003°21'0 0.0
2018-Apr-13 10:00N 47°45' W 003°21'1 2.0
2018-Apr-13 09:30N 47°45' W 003°19'0 0.0
2018-Apr-13 09:00N 47°45' W 003°19'0 0.0
2018-Apr-13 08:30N 47°45' W 003°19'0 0.0
2018-Apr-13 08:00N 47°45' W 003°19'1 2.1
2018-Apr-13 07:30N 47°44' W 003°21'1 1.0
2018-Apr-13 07:00N 47°45' W 003°21'0 0.0
2018-Apr-13 06:30N 47°45' W 003°21'0 0.0
2018-Apr-13 06:00N 47°45' W 003°21'0 0.0
2018-Apr-13 05:30N 47°45' W 003°21'0 0.0
2018-Apr-13 05:00N 47°45' W 003°21'0 0.0
2018-Apr-13 04:30N 47°45' W 003°21'0 0.0
2018-Apr-13 04:00N 47°45' W 003°21'0 0.0
2018-Apr-13 03:30N 47°45' W 003°21'0 0.0
2018-Apr-13 03:00N 47°45' W 003°21'0 0.0
2018-Apr-13 02:30N 47°45' W 003°21'0 0.0
2018-Apr-13 02:00N 47°45' W 003°21'0 0.0
2018-Apr-13 01:30N 47°45' W 003°21'0 0.0
2018-Apr-13 01:00N 47°45' W 003°21'0 0.0
2018-Apr-13 00:30N 47°45' W 003°21'0 0.0
2018-Apr-13 00:00N 47°45' W 003°21'0 0.0
2018-Apr-12 23:30N 47°45' W 003°21'0 0.0
2018-Apr-12 23:00N 47°45' W 003°21'0 0.0
2018-Apr-12 22:30N 47°45' W 003°21'0 0.0
2018-Apr-12 22:00N 47°45' W 003°21'0 0.0
2018-Apr-12 21:30N 47°45' W 003°21'0 0.0
2018-Apr-12 21:00N 47°45' W 003°21'0 0.0
2018-Apr-12 20:30N 47°45' W 003°21'0 0.0
2018-Apr-12 20:00N 47°45' W 003°21'0 0.0
2018-Apr-12 19:30N 47°45' W 003°21'0 0.0
2018-Apr-12 19:00N 47°45' W 003°21'0 0.0
2018-Apr-12 18:30N 47°45' W 003°21'0 0.0
2018-Apr-12 18:00N 47°45' W 003°21'0 0.0
2018-Apr-12 17:30N 47°45' W 003°21'0 0.0
2018-Apr-12 16:59N 47°45' W 003°21'0 0.0
2018-Apr-12 16:30N 47°45' W 003°21'0 0.0
2018-Apr-12 16:00N 47°45' W 003°21'0 0.0
2018-Apr-12 15:30N 47°45' W 003°21'0 0.0
2018-Apr-12 15:00N 47°45' W 003°21'0 0.9
2018-Apr-12 14:30N 47°44' W 003°21'4 9.0
2018-Apr-12 14:00N 47°40' W 003°21'5 9.8
2018-Apr-12 13:30N 47°35' W 003°18'5 9.7
2018-Apr-12 13:00N 47°31' W 003°15'5 9.6
2018-Apr-12 12:30N 47°27' W 003°11'510.0
2018-Apr-12 12:00N 47°22' W 003°09'1 2.3
2018-Apr-12 11:30N 47°21' W 003°10'0 0.0
2018-Apr-12 10:53N 47°21' W 003°10'0 0.0
2018-Apr-12 10:30N 47°21' W 003°10'0 0.0
2018-Apr-12 10:00N 47°21' W 003°10'0 0.0
2018-Apr-12 09:30N 47°21' W 003°10'0 0.0
2018-Apr-12 09:00N 47°21' W 003°10'0 0.0
2018-Apr-12 08:28N 47°21' W 003°10'0 0.0
2018-Apr-12 08:00N 47°21' W 003°10'0 0.0
2018-Apr-12 07:30N 47°21' W 003°10'0 0.0
2018-Apr-12 07:00N 47°21' W 003°10'0 0.0
2018-Apr-12 06:28N 47°21' W 003°10'0 0.0
2018-Apr-12 06:00N 47°21' W 003°10'0 0.0
2018-Apr-12 05:30N 47°21' W 003°10'0 0.0
2018-Apr-12 05:00N 47°21' W 003°10'0 0.0
2018-Apr-12 04:30N 47°21' W 003°10'0 0.0
2018-Apr-12 04:00N 47°21' W 003°10'0 0.0
2018-Apr-12 03:30N 47°21' W 003°10'0 0.0
2018-Apr-12 03:00N 47°21' W 003°10'0 0.0
2018-Apr-12 02:30N 47°21' W 003°10'0 0.0
2018-Apr-12 02:00N 47°21' W 003°10'0 0.0
2018-Apr-12 01:29N 47°21' W 003°10'0 0.0
2018-Apr-12 01:00N 47°21' W 003°10'0 0.0
2018-Apr-12 00:30N 47°21' W 003°10'0 0.0
2018-Apr-11 23:58N 47°21' W 003°10'0 0.0
2018-Apr-11 23:30N 47°21' W 003°10'0 0.0
2018-Apr-11 22:57N 47°21' W 003°10'0 0.0
2018-Apr-11 22:29N 47°21' W 003°10'0 0.0
2018-Apr-11 18:47N 47°21' W 003°10'0 0.0
2018-Apr-11 18:26N 47°21' W 003°10'0 0.0
2018-Apr-11 17:57N 47°21' W 003°10'0 0.0
2018-Apr-11 17:30N 47°21' W 003°10'0 0.0
2018-Apr-11 17:00N 47°21' W 003°10'0 0.0
2018-Apr-11 16:29N 47°21' W 003°10'0 0.0
2018-Apr-11 15:59N 47°21' W 003°10'0 0.0
2018-Apr-11 15:30N 47°21' W 003°10'0 0.0
2018-Apr-11 15:00N 47°21' W 003°10'0 0.0
2018-Apr-11 14:29N 47°21' W 003°10'0 0.0
2018-Apr-11 14:00N 47°21' W 003°10'0 0.1
2018-Apr-11 12:22N 47°21' W 003°09'1 1.5
2018-Apr-11 12:00N 47°21' W 003°09'3 6.2
2018-Apr-11 11:30N 47°24' W 003°11'5 9.2
2018-Apr-11 11:00N 47°28' W 003°14'4 8.8
2018-Apr-11 10:30N 47°32' W 003°17'4 8.8
2018-Apr-11 10:00N 47°36' W 003°20'4 8.9
2018-Apr-11 09:30N 47°40' W 003°22'4 8.1
2018-Apr-11 09:00N 47°44' W 003°20'1 1.8
2018-Apr-11 08:29N 47°45' W 003°19'0 0.0
2018-Apr-11 08:00N 47°45' W 003°19'1 2.1
2018-Apr-11 07:30N 47°45' W 003°21'0 0.1
2018-Apr-11 07:00N 47°45' W 003°21'0 0.0
2018-Apr-11 06:30N 47°45' W 003°21'0 0.0
2018-Apr-11 06:00N 47°45' W 003°21'0 0.0
2018-Apr-11 05:30N 47°45' W 003°21'0 0.0
2018-Apr-11 05:00N 47°45' W 003°21'0 0.0
2018-Apr-11 04:30N 47°45' W 003°21'0 0.0
2018-Apr-11 04:00N 47°45' W 003°21'0 0.0
2018-Apr-11 03:30N 47°45' W 003°21'0 0.0
2018-Apr-11 03:00N 47°45' W 003°21'0 0.0
2018-Apr-11 02:30N 47°45' W 003°21'0 0.0
2018-Apr-11 02:00N 47°45' W 003°21'0 0.0
2018-Apr-11 01:30N 47°45' W 003°21'0 0.0
2018-Apr-11 01:00N 47°45' W 003°21'0 0.0
2018-Apr-11 00:29N 47°45' W 003°21'0 0.0
2018-Apr-11 00:00N 47°45' W 003°21'0 0.0
2018-Apr-10 23:30N 47°45' W 003°21'0 0.0
2018-Apr-10 23:00N 47°45' W 003°21'0 0.0
2018-Apr-10 22:30N 47°45' W 003°21'0 0.0
2018-Apr-10 22:00N 47°45' W 003°21'0 0.0
2018-Apr-10 21:30N 47°45' W 003°21'0 0.0
2018-Apr-10 21:00N 47°45' W 003°21'0 0.0
2018-Apr-10 20:30N 47°45' W 003°21'0 0.0
2018-Apr-10 20:00N 47°45' W 003°21'0 0.0
2018-Apr-10 19:30N 47°45' W 003°21'0 0.0
2018-Apr-10 19:00N 47°45' W 003°21'0 0.0
2018-Apr-10 18:30N 47°45' W 003°21'0 0.0
2018-Apr-10 18:00N 47°45' W 003°21'0 0.0
2018-Apr-10 17:30N 47°45' W 003°21'0 0.4
2018-Apr-10 17:00N 47°44' W 003°21'4 8.9
2018-Apr-10 16:30N 47°40' W 003°22'510.6
2018-Apr-10 16:00N 47°35' W 003°18'510.7
2018-Apr-10 15:30N 47°31' W 003°15'510.8
2018-Apr-10 15:00N 47°26' W 003°12'510.1
2018-Apr-10 14:30N 47°21' W 003°09'0 0.2
2018-Apr-10 14:00N 47°21' W 003°09'0 0.0
2018-Apr-10 13:30N 47°21' W 003°09'0 0.0
2018-Apr-10 13:00N 47°21' W 003°09'0 0.0
2018-Apr-10 12:30N 47°21' W 003°09'0 0.0
2018-Apr-10 12:00N 47°21' W 003°09'0 0.0
2018-Apr-10 11:30N 47°21' W 003°09'0 0.0
2018-Apr-10 11:00N 47°21' W 003°09'0 0.0
2018-Apr-10 10:30N 47°21' W 003°09'0 0.0
2018-Apr-10 10:00N 47°21' W 003°09'0 0.0
2018-Apr-10 09:30N 47°21' W 003°09'0 0.3
2018-Apr-10 09:00N 47°21' W 003°09'0 0.6
2018-Apr-10 08:30N 47°21' W 003°09'0 0.0
2018-Apr-10 08:00N 47°21' W 003°09'2 4.4
2018-Apr-10 07:30N 47°23' W 003°10'4 8.8
2018-Apr-10 07:00N 47°27' W 003°12'4 8.4
2018-Apr-10 06:30N 47°31' W 003°15'4 8.3
2018-Apr-10 06:00N 47°35' W 003°18'4 8.3
2018-Apr-10 05:30N 47°38' W 003°21'4 8.6
2018-Apr-10 05:00N 47°43' W 003°22'2 4.5
2018-Apr-10 04:30N 47°45' W 003°21'0 0.0
2018-Apr-10 04:00N 47°45' W 003°21'0 0.0
2018-Apr-10 03:30N 47°45' W 003°21'0 0.0
2018-Apr-10 03:00N 47°45' W 003°21'0 0.0
2018-Apr-10 02:30N 47°45' W 003°21'0 0.0
2018-Apr-10 01:59N 47°45' W 003°21'0 0.0
2018-Apr-10 01:30N 47°45' W 003°21'0 0.0
2018-Apr-10 01:00N 47°45' W 003°21'0 0.0
2018-Apr-10 00:30N 47°45' W 003°21'0 0.0
2018-Apr-10 00:00N 47°45' W 003°21'0 0.0
2018-Apr-09 23:30N 47°45' W 003°21'0 0.0
2018-Apr-09 23:00N 47°45' W 003°21'0 0.0
2018-Apr-09 22:30N 47°45' W 003°21'0 0.0
2018-Apr-09 22:00N 47°45' W 003°21'0 0.0
2018-Apr-09 21:30N 47°45' W 003°21'0 0.0
2018-Apr-09 21:00N 47°45' W 003°21'0 0.0
2018-Apr-09 20:30N 47°45' W 003°21'0 0.0
2018-Apr-09 20:00N 47°45' W 003°21'0 0.0
2018-Apr-09 19:30N 47°45' W 003°21'0 0.0
2018-Apr-09 19:00N 47°45' W 003°21'0 0.0
2018-Apr-09 18:30N 47°45' W 003°21'1 2.0
2018-Apr-09 18:00N 47°45' W 003°19'0 0.3
2018-Apr-09 17:30N 47°45' W 003°19'0 0.0
2018-Apr-09 17:00N 47°45' W 003°19'0 0.0
2018-Apr-09 16:30N 47°45' W 003°19'4 8.0
2018-Apr-09 16:00N 47°42' W 003°23'4 8.0
2018-Apr-09 15:30N 47°39' W 003°27'0 0.0
2018-Apr-09 15:00N 47°39' W 003°27'0 0.0
2018-Apr-09 14:30N 47°39' W 003°27'0 0.0
2018-Apr-09 14:00N 47°39' W 003°27'0 0.6
2018-Apr-09 13:30N 47°39' W 003°27'0 0.2
2018-Apr-09 13:00N 47°39' W 003°27'0 0.0
2018-Apr-09 12:30N 47°39' W 003°27'0 0.9
2018-Apr-09 12:00N 47°39' W 003°27'0 0.0
2018-Apr-09 11:30N 47°39' W 003°27'0 0.0
2018-Apr-09 11:00N 47°39' W 003°27'0 0.0
2018-Apr-09 10:30N 47°39' W 003°27'0 0.0
2018-Apr-09 10:00N 47°39' W 003°27'0 0.0
2018-Apr-09 09:30N 47°39' W 003°27'  
Track history (hours):
 
Tides and Currents Weather Stations Pressure Air Temp Water Temp Dewpoint Dewpoint Depression Visibility Wind Speed Wind Dir Waves Ship Positions

Taillefer 3

Last reported at 2018-Apr-19 09:11 UTC. Time now 2018-Apr-24 05:05 UTC.
Position N 47°45' W 003°21'.

Length 40 m; draft 1.8 m.

Type: Cargo ship. MMSI: 227566810.

Date/timePositionNaut miles runAvg speedWind from/ knotsBaromVisibWave heightAir tempDewpointWater temp
2018-Apr-19 09:11N 47°45' W 003°21'0 0.8
2018-Apr-19 09:00N 47°45' W 003°21'4 7.9
2018-Apr-19 08:30N 47°41' W 003°22'5 9.9
2018-Apr-19 08:00N 47°36' W 003°20'5 9.8
2018-Apr-19 07:30N 47°31' W 003°17'510.0
2018-Apr-19 07:00N 47°27' W 003°13'510.3
2018-Apr-19 06:30N 47°23' W 003°10'2 0.4
2018-Apr-19 02:32N 47°21' W 003°10'0 0.0
2018-Apr-18 20:51N 47°21' W 003°10'0 0.0
2018-Apr-18 20:28N 47°21' W 003°10'0 0.0
2018-Apr-18 19:49N 47°21' W 003°10'0 0.0
2018-Apr-18 19:26N 47°21' W 003°10'0 0.0
2018-Apr-18 18:55N 47°21' W 003°10'0 0.0
2018-Apr-18 18:28N 47°21' W 003°10'0 0.0
2018-Apr-18 17:59N 47°21' W 003°10'0 0.1
2018-Apr-18 14:52N 47°21' W 003°09'1 1.4
2018-Apr-18 14:30N 47°21' W 003°09'0 0.0
2018-Apr-18 14:00N 47°21' W 003°09'0 0.0
2018-Apr-18 13:30N 47°21' W 003°09'0 0.0
2018-Apr-18 13:00N 47°21' W 003°09'0 0.0
2018-Apr-18 12:30N 47°21' W 003°09'0 0.1
2018-Apr-18 12:01N 47°21' W 003°09'3 6.1
2018-Apr-18 11:30N 47°24' W 003°11'4 7.7
2018-Apr-18 11:00N 47°27' W 003°14'4 7.5
2018-Apr-18 10:30N 47°31' W 003°16'4 8.2
2018-Apr-18 10:00N 47°35' W 003°19'4 7.8
2018-Apr-18 09:30N 47°38' W 003°21'4 8.2
2018-Apr-18 09:00N 47°42' W 003°22'3 6.7
2018-Apr-18 08:30N 47°45' W 003°19'0 0.0
2018-Apr-18 08:00N 47°45' W 003°19'1 2.3
2018-Apr-18 07:29N 47°44' W 003°21'4 8.3
2018-Apr-18 07:00N 47°40' W 003°22'5 9.8
2018-Apr-18 06:30N 47°36' W 003°20'5 9.9
2018-Apr-18 06:00N 47°31' W 003°17'5 9.0
2018-Apr-18 05:30N 47°27' W 003°13'5 9.9
2018-Apr-18 05:00N 47°23' W 003°10'2 0.1
2018-Apr-17 14:33N 47°21' W 003°09'0 2.2
2018-Apr-17 14:30N 47°21' W 003°09'0 0.1
2018-Apr-17 14:00N 47°21' W 003°09'0 0.0
2018-Apr-17 13:30N 47°21' W 003°09'0 0.0
2018-Apr-17 13:00N 47°21' W 003°09'0 0.0
2018-Apr-17 12:30N 47°21' W 003°09'1 2.7
2018-Apr-17 12:00N 47°22' W 003°08'4 7.9
2018-Apr-17 11:30N 47°25' W 003°05'4 8.0
2018-Apr-17 11:00N 47°28' W 003°00'4 8.8
2018-Apr-17 10:30N 47°31' W 002°56'611.0
2018-Apr-17 10:00N 47°36' W 002°52'4 8.0
2018-Apr-17 09:30N 47°38' W 002°46'1 1.8
2018-Apr-17 08:59N 47°38' W 002°46'0 0.0
2018-Apr-17 08:30N 47°38' W 002°46'0 0.0
2018-Apr-17 08:00N 47°38' W 002°46'0 0.0
2018-Apr-17 07:30N 47°38' W 002°46'0 0.0
2018-Apr-17 07:00N 47°38' W 002°46'0 0.0
2018-Apr-17 06:30N 47°38' W 002°46'0 0.0
2018-Apr-17 06:00N 47°38' W 002°46'0 0.0
2018-Apr-17 05:30N 47°38' W 002°46'0 0.0
2018-Apr-17 05:00N 47°38' W 002°46'0 0.0
2018-Apr-17 04:30N 47°38' W 002°46'0 0.0
2018-Apr-17 04:00N 47°38' W 002°46'0 0.0
2018-Apr-17 03:30N 47°38' W 002°46'0 0.0
2018-Apr-17 02:59N 47°38' W 002°46'0 0.0
2018-Apr-17 02:29N 47°38' W 002°46'0 0.0
2018-Apr-17 02:00N 47°38' W 002°46'0 0.0
2018-Apr-17 01:30N 47°38' W 002°46'0 0.0
2018-Apr-17 01:00N 47°38' W 002°46'0 0.0
2018-Apr-17 00:30N 47°38' W 002°46'0 0.0
2018-Apr-17 00:00N 47°38' W 002°46'0 0.0
2018-Apr-16 23:30N 47°38' W 002°46'0 0.0
2018-Apr-16 23:00N 47°38' W 002°46'0 0.0
2018-Apr-16 22:30N 47°38' W 002°46'0 0.0
2018-Apr-16 22:00N 47°38' W 002°46'0 0.0
2018-Apr-16 21:30N 47°38' W 002°46'0 0.0
2018-Apr-16 21:00N 47°38' W 002°46'0 0.0
2018-Apr-16 20:30N 47°38' W 002°46'0 0.0
2018-Apr-16 20:00N 47°38' W 002°46'0 0.0
2018-Apr-16 19:30N 47°38' W 002°46'0 0.0
2018-Apr-16 19:00N 47°38' W 002°46'0 0.0
2018-Apr-16 18:30N 47°38' W 002°46'1 1.4
2018-Apr-16 18:00N 47°38' W 002°46'4 8.6
2018-Apr-16 17:30N 47°36' W 002°52'510.8
2018-Apr-16 17:00N 47°31' W 002°56'510.4
2018-Apr-16 16:30N 47°27' W 003°01'510.3
2018-Apr-16 16:00N 47°23' W 003°06'3 2.2
2018-Apr-16 14:29N 47°21' W 003°09'4 8.7
2018-Apr-16 14:00N 47°25' W 003°11'510.3
2018-Apr-16 13:30N 47°29' W 003°14'5 9.9
2018-Apr-16 13:00N 47°34' W 003°18'5 9.5
2018-Apr-16 12:30N 47°38' W 003°22'3 6.9
2018-Apr-16 12:00N 47°39' W 003°27'0 0.0
2018-Apr-16 11:30N 47°39' W 003°27'0 0.0
2018-Apr-16 11:00N 47°39' W 003°27'0 0.0
2018-Apr-16 10:30N 47°39' W 003°27'0 0.0
2018-Apr-16 10:00N 47°39' W 003°27'0 0.0
2018-Apr-16 09:30N 47°39' W 003°27'0 0.0
2018-Apr-16 09:00N 47°39' W 003°27'0 0.0
2018-Apr-16 08:30N 47°39' W 003°27'0 0.0
2018-Apr-16 08:00N 47°39' W 003°27'0 0.0
2018-Apr-16 07:30N 47°39' W 003°27'0 0.0
2018-Apr-16 07:00N 47°39' W 003°27'0 0.0
2018-Apr-16 06:30N 47°39' W 003°27'0 0.0
2018-Apr-16 06:00N 47°39' W 003°27'2 3.2
2018-Apr-16 05:30N 47°40' W 003°25'5 9.6
2018-Apr-16 05:00N 47°44' W 003°21'  
2018-Apr-13 10:06N 47°45' W 003°21'0 0.0
2018-Apr-13 10:00N 47°45' W 003°21'1 2.0
2018-Apr-13 09:30N 47°45' W 003°19'0 0.0
2018-Apr-13 09:00N 47°45' W 003°19'0 0.0
2018-Apr-13 08:30N 47°45' W 003°19'0 0.0
2018-Apr-13 08:00N 47°45' W 003°19'1 2.1
2018-Apr-13 07:30N 47°44' W 003°21'1 1.0
2018-Apr-13 07:00N 47°45' W 003°21'0 0.0
2018-Apr-13 06:30N 47°45' W 003°21'0 0.0
2018-Apr-13 06:00N 47°45' W 003°21'0 0.0
2018-Apr-13 05:30N 47°45' W 003°21'0 0.0
2018-Apr-13 05:00N 47°45' W 003°21'0 0.0
2018-Apr-13 04:30N 47°45' W 003°21'0 0.0
2018-Apr-13 04:00N 47°45' W 003°21'0 0.0
2018-Apr-13 03:30N 47°45' W 003°21'0 0.0
2018-Apr-13 03:00N 47°45' W 003°21'0 0.0
2018-Apr-13 02:30N 47°45' W 003°21'0 0.0
2018-Apr-13 02:00N 47°45' W 003°21'0 0.0
2018-Apr-13 01:30N 47°45' W 003°21'0 0.0
2018-Apr-13 01:00N 47°45' W 003°21'0 0.0
2018-Apr-13 00:30N 47°45' W 003°21'0 0.0
2018-Apr-13 00:00N 47°45' W 003°21'0 0.0
2018-Apr-12 23:30N 47°45' W 003°21'0 0.0
2018-Apr-12 23:00N 47°45' W 003°21'0 0.0
2018-Apr-12 22:30N 47°45' W 003°21'0 0.0
2018-Apr-12 22:00N 47°45' W 003°21'0 0.0
2018-Apr-12 21:30N 47°45' W 003°21'0 0.0
2018-Apr-12 21:00N 47°45' W 003°21'0 0.0
2018-Apr-12 20:30N 47°45' W 003°21'0 0.0
2018-Apr-12 20:00N 47°45' W 003°21'0 0.0
2018-Apr-12 19:30N 47°45' W 003°21'0 0.0
2018-Apr-12 19:00N 47°45' W 003°21'0 0.0
2018-Apr-12 18:30N 47°45' W 003°21'0 0.0
2018-Apr-12 18:00N 47°45' W 003°21'0 0.0
2018-Apr-12 17:30N 47°45' W 003°21'0 0.0
2018-Apr-12 16:59N 47°45' W 003°21'0 0.0
2018-Apr-12 16:30N 47°45' W 003°21'0 0.0
2018-Apr-12 16:00N 47°45' W 003°21'0 0.0
2018-Apr-12 15:30N 47°45' W 003°21'0 0.0
2018-Apr-12 15:00N 47°45' W 003°21'0 0.9
2018-Apr-12 14:30N 47°44' W 003°21'4 9.0
2018-Apr-12 14:00N 47°40' W 003°21'5 9.8
2018-Apr-12 13:30N 47°35' W 003°18'5 9.7
2018-Apr-12 13:00N 47°31' W 003°15'5 9.6
2018-Apr-12 12:30N 47°27' W 003°11'510.0
2018-Apr-12 12:00N 47°22' W 003°09'1 2.3
2018-Apr-12 11:30N 47°21' W 003°10'0 0.0
2018-Apr-12 10:53N 47°21' W 003°10'0 0.0
2018-Apr-12 10:30N 47°21' W 003°10'0 0.0
2018-Apr-12 10:00N 47°21' W 003°10'0 0.0
2018-Apr-12 09:30N 47°21' W 003°10'0 0.0
2018-Apr-12 09:00N 47°21' W 003°10'0 0.0
2018-Apr-12 08:28N 47°21' W 003°10'0 0.0
2018-Apr-12 08:00N 47°21' W 003°10'0 0.0
2018-Apr-12 07:30N 47°21' W 003°10'0 0.0
2018-Apr-12 07:00N 47°21' W 003°10'0 0.0
2018-Apr-12 06:28N 47°21' W 003°10'0 0.0
2018-Apr-12 06:00N 47°21' W 003°10'0 0.0
2018-Apr-12 05:30N 47°21' W 003°10'0 0.0
2018-Apr-12 05:00N 47°21' W 003°10'0 0.0
2018-Apr-12 04:30N 47°21' W 003°10'0 0.0
2018-Apr-12 04:00N 47°21' W 003°10'0 0.0
2018-Apr-12 03:30N 47°21' W 003°10'0 0.0
2018-Apr-12 03:00N 47°21' W 003°10'0 0.0
2018-Apr-12 02:30N 47°21' W 003°10'0 0.0
2018-Apr-12 02:00N 47°21' W 003°10'0 0.0
2018-Apr-12 01:29N 47°21' W 003°10'0 0.0
2018-Apr-12 01:00N 47°21' W 003°10'0 0.0
2018-Apr-12 00:30N 47°21' W 003°10'0 0.0
2018-Apr-11 23:58N 47°21' W 003°10'0 0.0
2018-Apr-11 23:30N 47°21' W 003°10'0 0.0
2018-Apr-11 22:57N 47°21' W 003°10'0 0.0
2018-Apr-11 22:29N 47°21' W 003°10'0 0.0
2018-Apr-11 18:47N 47°21' W 003°10'0 0.0
2018-Apr-11 18:26N 47°21' W 003°10'0 0.0
2018-Apr-11 17:57N 47°21' W 003°10'0 0.0
2018-Apr-11 17:30N 47°21' W 003°10'0 0.0
2018-Apr-11 17:00N 47°21' W 003°10'0 0.0
2018-Apr-11 16:29N 47°21' W 003°10'0 0.0
2018-Apr-11 15:59N 47°21' W 003°10'0 0.0
2018-Apr-11 15:30N 47°21' W 003°10'0 0.0
2018-Apr-11 15:00N 47°21' W 003°10'0 0.0
2018-Apr-11 14:29N 47°21' W 003°10'0 0.0
2018-Apr-11 14:00N 47°21' W 003°10'0 0.1
2018-Apr-11 12:22N 47°21' W 003°09'1 1.5
2018-Apr-11 12:00N 47°21' W 003°09'3 6.2
2018-Apr-11 11:30N 47°24' W 003°11'5 9.2
2018-Apr-11 11:00N 47°28' W 003°14'4 8.8
2018-Apr-11 10:30N 47°32' W 003°17'4 8.8
2018-Apr-11 10:00N 47°36' W 003°20'4 8.9
2018-Apr-11 09:30N 47°40' W 003°22'4 8.1
2018-Apr-11 09:00N 47°44' W 003°20'1 1.8
2018-Apr-11 08:29N 47°45' W 003°19'0 0.0
2018-Apr-11 08:00N 47°45' W 003°19'1 2.1
2018-Apr-11 07:30N 47°45' W 003°21'0 0.1
2018-Apr-11 07:00N 47°45' W 003°21'0 0.0
2018-Apr-11 06:30N 47°45' W 003°21'0 0.0
2018-Apr-11 06:00N 47°45' W 003°21'0 0.0
2018-Apr-11 05:30N 47°45' W 003°21'0 0.0
2018-Apr-11 05:00N 47°45' W 003°21'0 0.0
2018-Apr-11 04:30N 47°45' W 003°21'0 0.0
2018-Apr-11 04:00N 47°45' W 003°21'0 0.0
2018-Apr-11 03:30N 47°45' W 003°21'0 0.0
2018-Apr-11 03:00N 47°45' W 003°21'0 0.0
2018-Apr-11 02:30N 47°45' W 003°21'0 0.0
2018-Apr-11 02:00N 47°45' W 003°21'0 0.0
2018-Apr-11 01:30N 47°45' W 003°21'0 0.0
2018-Apr-11 01:00N 47°45' W 003°21'0 0.0
2018-Apr-11 00:29N 47°45' W 003°21'0 0.0
2018-Apr-11 00:00N 47°45' W 003°21'0 0.0
2018-Apr-10 23:30N 47°45' W 003°21'0 0.0
2018-Apr-10 23:00N 47°45' W 003°21'0 0.0
2018-Apr-10 22:30N 47°45' W 003°21'0 0.0
2018-Apr-10 22:00N 47°45' W 003°21'0 0.0
2018-Apr-10 21:30N 47°45' W 003°21'0 0.0
2018-Apr-10 21:00N 47°45' W 003°21'0 0.0
2018-Apr-10 20:30N 47°45' W 003°21'0 0.0
2018-Apr-10 20:00N 47°45' W 003°21'0 0.0
2018-Apr-10 19:30N 47°45' W 003°21'0 0.0
2018-Apr-10 19:00N 47°45' W 003°21'0 0.0
2018-Apr-10 18:30N 47°45' W 003°21'0 0.0
2018-Apr-10 18:00N 47°45' W 003°21'0 0.0
2018-Apr-10 17:30N 47°45' W 003°21'0 0.4
2018-Apr-10 17:00N 47°44' W 003°21'4 8.9
2018-Apr-10 16:30N 47°40' W 003°22'510.6
2018-Apr-10 16:00N 47°35' W 003°18'510.7
2018-Apr-10 15:30N 47°31' W 003°15'510.8
2018-Apr-10 15:00N 47°26' W 003°12'510.1
2018-Apr-10 14:30N 47°21' W 003°09'0 0.2
2018-Apr-10 14:00N 47°21' W 003°09'0 0.0
2018-Apr-10 13:30N 47°21' W 003°09'0 0.0
2018-Apr-10 13:00N 47°21' W 003°09'0 0.0
2018-Apr-10 12:30N 47°21' W 003°09'0 0.0
2018-Apr-10 12:00N 47°21' W 003°09'0 0.0
2018-Apr-10 11:30N 47°21' W 003°09'0 0.0
2018-Apr-10 11:00N 47°21' W 003°09'0 0.0
2018-Apr-10 10:30N 47°21' W 003°09'0 0.0
2018-Apr-10 10:00N 47°21' W 003°09'0 0.0
2018-Apr-10 09:30N 47°21' W 003°09'0 0.3
2018-Apr-10 09:00N 47°21' W 003°09'0 0.6
2018-Apr-10 08:30N 47°21' W 003°09'0 0.0
2018-Apr-10 08:00N 47°21' W 003°09'2 4.4
2018-Apr-10 07:30N 47°23' W 003°10'4 8.8
2018-Apr-10 07:00N 47°27' W 003°12'4 8.4
2018-Apr-10 06:30N 47°31' W 003°15'4 8.3
2018-Apr-10 06:00N 47°35' W 003°18'4 8.3
2018-Apr-10 05:30N 47°38' W 003°21'4 8.6
2018-Apr-10 05:00N 47°43' W 003°22'2 4.5
2018-Apr-10 04:30N 47°45' W 003°21'0 0.0
2018-Apr-10 04:00N 47°45' W 003°21'0 0.0
2018-Apr-10 03:30N 47°45' W 003°21'0 0.0
2018-Apr-10 03:00N 47°45' W 003°21'0 0.0
2018-Apr-10 02:30N 47°45' W 003°21'0 0.0
2018-Apr-10 01:59N 47°45' W 003°21'0 0.0
2018-Apr-10 01:30N 47°45' W 003°21'0 0.0
2018-Apr-10 01:00N 47°45' W 003°21'0 0.0
2018-Apr-10 00:30N 47°45' W 003°21'0 0.0
2018-Apr-10 00:00N 47°45' W 003°21'0 0.0
2018-Apr-09 23:30N 47°45' W 003°21'0 0.0
2018-Apr-09 23:00N 47°45' W 003°21'0 0.0
2018-Apr-09 22:30N 47°45' W 003°21'0 0.0
2018-Apr-09 22:00N 47°45' W 003°21'0 0.0
2018-Apr-09 21:30N 47°45' W 003°21'0 0.0
2018-Apr-09 21:00N 47°45' W 003°21'0 0.0
2018-Apr-09 20:30N 47°45' W 003°21'0 0.0
2018-Apr-09 20:00N 47°45' W 003°21'0 0.0
2018-Apr-09 19:30N 47°45' W 003°21'0 0.0
2018-Apr-09 19:00N 47°45' W 003°21'0 0.0
2018-Apr-09 18:30N 47°45' W 003°21'1 2.0
2018-Apr-09 18:00N 47°45' W 003°19'0 0.3
2018-Apr-09 17:30N 47°45' W 003°19'0 0.0
2018-Apr-09 17:00N 47°45' W 003°19'0 0.0
2018-Apr-09 16:30N 47°45' W 003°19'4 8.0
2018-Apr-09 16:00N 47°42' W 003°23'4 8.0
2018-Apr-09 15:30N 47°39' W 003°27'0 0.0
2018-Apr-09 15:00N 47°39' W 003°27'0 0.0
2018-Apr-09 14:30N 47°39' W 003°27'0 0.0
2018-Apr-09 14:00N 47°39' W 003°27'0 0.6
2018-Apr-09 13:30N 47°39' W 003°27'0 0.2
2018-Apr-09 13:00N 47°39' W 003°27'0 0.0
2018-Apr-09 12:30N 47°39' W 003°27'0 0.9
2018-Apr-09 12:00N 47°39' W 003°27'0 0.0
2018-Apr-09 11:30N 47°39' W 003°27'0 0.0
2018-Apr-09 11:00N 47°39' W 003°27'0 0.0
2018-Apr-09 10:30N 47°39' W 003°27'0 0.0
2018-Apr-09 10:00N 47°39' W 003°27'0 0.0
2018-Apr-09 09:30N 47°39' W 003°27'  

Dump ship's entire track history